sensor_id;sensor_type;location;lat;lon;timestamp;P1;durP1;ratioP1;P2;durP2;ratioP2
33593;SDS011;19920;52.242;20.940;2023-07-08T00:01:21;7.97;;;4.25;;
33593;SDS011;19920;52.242;20.940;2023-07-08T00:03:47;9.00;;;4.57;;
33593;SDS011;19920;52.242;20.940;2023-07-08T00:06:25;12.52;;;5.15;;
33593;SDS011;19920;52.242;20.940;2023-07-08T00:08:52;7.97;;;5.00;;
33593;SDS011;19920;52.242;20.940;2023-07-08T00:11:18;9.43;;;4.40;;
33593;SDS011;19920;52.242;20.940;2023-07-08T00:13:44;7.15;;;4.28;;
33593;SDS011;19920;52.242;20.940;2023-07-08T00:16:10;11.13;;;4.50;;
33593;SDS011;19920;52.242;20.940;2023-07-08T00:18:37;7.22;;;5.00;;
33593;SDS011;19920;52.242;20.940;2023-07-08T00:21:04;8.70;;;4.80;;
33593;SDS011;19920;52.242;20.940;2023-07-08T00:23:34;7.53;;;4.53;;
33593;SDS011;19920;52.242;20.940;2023-07-08T00:26:01;7.28;;;4.85;;
33593;SDS011;19920;52.242;20.940;2023-07-08T00:28:29;9.10;;;4.40;;
33593;SDS011;19920;52.242;20.940;2023-07-08T00:30:54;7.43;;;4.65;;
33593;SDS011;19920;52.242;20.940;2023-07-08T00:33:22;9.70;;;4.63;;
33593;SDS011;19920;52.242;20.940;2023-07-08T00:35:48;9.38;;;5.15;;
33593;SDS011;19920;52.242;20.940;2023-07-08T00:38:14;15.27;;;4.53;;
33593;SDS011;19920;52.242;20.940;2023-07-08T00:40:52;9.05;;;4.20;;
33593;SDS011;19920;52.242;20.940;2023-07-08T00:43:34;9.80;;;4.53;;
33593;SDS011;19920;52.242;20.940;2023-07-08T00:46:08;8.38;;;4.97;;
33593;SDS011;19920;52.242;20.940;2023-07-08T00:48:40;10.77;;;4.60;;
33593;SDS011;19920;52.242;20.940;2023-07-08T00:51:08;7.53;;;4.60;;
33593;SDS011;19920;52.242;20.940;2023-07-08T00:53:36;9.45;;;4.70;;
33593;SDS011;19920;52.242;20.940;2023-07-08T00:56:09;11.90;;;5.07;;
33593;SDS011;19920;52.242;20.940;2023-07-08T00:58:42;10.20;;;4.10;;
33593;SDS011;19920;52.242;20.940;2023-07-08T01:01:26;11.60;;;4.82;;
33593;SDS011;19920;52.242;20.940;2023-07-08T01:03:58;11.38;;;4.53;;
33593;SDS011;19920;52.242;20.940;2023-07-08T01:06:35;7.53;;;4.43;;
33593;SDS011;19920;52.242;20.940;2023-07-08T01:09:05;9.15;;;4.57;;
33593;SDS011;19920;52.242;20.940;2023-07-08T01:11:33;11.82;;;4.55;;
33593;SDS011;19920;52.242;20.940;2023-07-08T01:14:01;10.05;;;4.60;;
33593;SDS011;19920;52.242;20.940;2023-07-08T01:16:28;6.63;;;4.10;;
33593;SDS011;19920;52.242;20.940;2023-07-08T01:23:59;8.15;;;4.25;;
33593;SDS011;19920;52.242;20.940;2023-07-08T01:26:26;7.20;;;4.47;;
33593;SDS011;19920;52.242;20.940;2023-07-08T01:28:54;8.25;;;4.20;;
33593;SDS011;19920;52.242;20.940;2023-07-08T01:31:21;10.77;;;4.75;;
33593;SDS011;19920;52.242;20.940;2023-07-08T01:33:48;9.80;;;4.68;;
33593;SDS011;19920;52.242;20.940;2023-07-08T01:36:15;14.30;;;4.90;;
33593;SDS011;19920;52.242;20.940;2023-07-08T01:38:42;6.80;;;4.15;;
33593;SDS011;19920;52.242;20.940;2023-07-08T01:41:10;8.05;;;4.50;;
33593;SDS011;19920;52.242;20.940;2023-07-08T01:43:37;10.87;;;4.60;;
33593;SDS011;19920;52.242;20.940;2023-07-08T01:46:03;6.65;;;4.68;;
33593;SDS011;19920;52.242;20.940;2023-07-08T01:48:35;7.05;;;4.15;;
33593;SDS011;19920;52.242;20.940;2023-07-08T01:51:04;7.18;;;4.70;;
33593;SDS011;19920;52.242;20.940;2023-07-08T01:53:36;8.30;;;4.88;;
33593;SDS011;19920;52.242;20.940;2023-07-08T01:56:06;9.05;;;4.80;;
33593;SDS011;19920;52.242;20.940;2023-07-08T01:58:33;9.15;;;4.95;;
33593;SDS011;19920;52.242;20.940;2023-07-08T02:00:59;11.00;;;4.82;;
33593;SDS011;19920;52.242;20.940;2023-07-08T02:03:25;10.82;;;5.00;;
33593;SDS011;19920;52.242;20.940;2023-07-08T02:05:51;12.13;;;5.20;;
33593;SDS011;19920;52.242;20.940;2023-07-08T02:08:17;9.75;;;4.57;;
33593;SDS011;19920;52.242;20.940;2023-07-08T02:10:43;8.27;;;5.07;;
33593;SDS011;19920;52.242;20.940;2023-07-08T02:13:13;7.85;;;4.75;;
33593;SDS011;19920;52.242;20.940;2023-07-08T02:15:39;8.88;;;4.80;;
33593;SDS011;19920;52.242;20.940;2023-07-08T02:18:04;7.57;;;4.85;;
33593;SDS011;19920;52.242;20.940;2023-07-08T02:20:30;7.70;;;4.22;;
33593;SDS011;19920;52.242;20.940;2023-07-08T02:22:55;8.13;;;4.85;;
33593;SDS011;19920;52.242;20.940;2023-07-08T02:25:21;9.27;;;4.85;;
33593;SDS011;19920;52.242;20.940;2023-07-08T02:27:46;8.38;;;5.10;;
33593;SDS011;19920;52.242;20.940;2023-07-08T02:30:12;8.07;;;5.13;;
33593;SDS011;19920;52.242;20.940;2023-07-08T02:32:37;8.05;;;5.20;;
33593;SDS011;19920;52.242;20.940;2023-07-08T02:35:04;9.30;;;5.22;;
33593;SDS011;19920;52.242;20.940;2023-07-08T02:37:30;11.25;;;5.38;;
33593;SDS011;19920;52.242;20.940;2023-07-08T02:39:57;10.38;;;5.60;;
33593;SDS011;19920;52.242;20.940;2023-07-08T02:42:23;7.10;;;5.10;;
33593;SDS011;19920;52.242;20.940;2023-07-08T02:44:48;10.45;;;5.35;;
33593;SDS011;19920;52.242;20.940;2023-07-08T02:47:14;9.93;;;5.35;;
33593;SDS011;19920;52.242;20.940;2023-07-08T02:49:39;8.80;;;5.50;;
33593;SDS011;19920;52.242;20.940;2023-07-08T02:52:05;13.35;;;5.47;;
33593;SDS011;19920;52.242;20.940;2023-07-08T02:54:31;8.65;;;5.32;;
33593;SDS011;19920;52.242;20.940;2023-07-08T02:56:56;8.98;;;5.28;;
33593;SDS011;19920;52.242;20.940;2023-07-08T02:59:22;9.55;;;5.25;;
33593;SDS011;19920;52.242;20.940;2023-07-08T03:01:48;8.23;;;5.35;;
33593;SDS011;19920;52.242;20.940;2023-07-08T03:04:15;10.27;;;5.28;;
33593;SDS011;19920;52.242;20.940;2023-07-08T03:06:41;8.45;;;5.20;;
33593;SDS011;19920;52.242;20.940;2023-07-08T03:09:08;9.65;;;5.32;;
33593;SDS011;19920;52.242;20.940;2023-07-08T03:11:35;11.98;;;5.30;;
33593;SDS011;19920;52.242;20.940;2023-07-08T03:14:01;8.25;;;5.35;;
33593;SDS011;19920;52.242;20.940;2023-07-08T03:16:26;8.95;;;5.22;;
33593;SDS011;19920;52.242;20.940;2023-07-08T03:18:52;8.65;;;5.43;;
33593;SDS011;19920;52.242;20.940;2023-07-08T03:21:18;9.98;;;5.47;;
33593;SDS011;19920;52.242;20.940;2023-07-08T03:23:44;9.02;;;5.72;;
33593;SDS011;19920;52.242;20.940;2023-07-08T03:26:14;9.95;;;5.72;;
33593;SDS011;19920;52.242;20.940;2023-07-08T03:28:41;8.45;;;5.53;;
33593;SDS011;19920;52.242;20.940;2023-07-08T03:31:08;9.70;;;6.20;;
33593;SDS011;19920;52.242;20.940;2023-07-08T03:33:35;10.50;;;5.85;;
33593;SDS011;19920;52.242;20.940;2023-07-08T03:36:01;8.35;;;5.72;;
33593;SDS011;19920;52.242;20.940;2023-07-08T03:38:28;9.90;;;5.63;;
33593;SDS011;19920;52.242;20.940;2023-07-08T03:40:53;8.65;;;5.53;;
33593;SDS011;19920;52.242;20.940;2023-07-08T03:43:19;10.07;;;6.05;;
33593;SDS011;19920;52.242;20.940;2023-07-08T03:45:44;10.70;;;5.80;;
33593;SDS011;19920;52.242;20.940;2023-07-08T03:48:11;8.65;;;6.18;;
33593;SDS011;19920;52.242;20.940;2023-07-08T03:50:37;8.15;;;5.75;;
33593;SDS011;19920;52.242;20.940;2023-07-08T03:53:03;9.55;;;6.18;;
33593;SDS011;19920;52.242;20.940;2023-07-08T03:55:29;10.75;;;6.72;;
33593;SDS011;19920;52.242;20.940;2023-07-08T03:57:55;9.50;;;6.00;;
33593;SDS011;19920;52.242;20.940;2023-07-08T04:00:20;14.93;;;5.90;;
33593;SDS011;19920;52.242;20.940;2023-07-08T04:02:46;7.25;;;5.20;;
33593;SDS011;19920;52.242;20.940;2023-07-08T04:05:19;10.45;;;5.55;;
33593;SDS011;19920;52.242;20.940;2023-07-08T04:07:47;10.00;;;5.82;;
33593;SDS011;19920;52.242;20.940;2023-07-08T04:10:13;10.25;;;5.72;;
33593;SDS011;19920;52.242;20.940;2023-07-08T04:12:39;11.90;;;6.40;;
33593;SDS011;19920;52.242;20.940;2023-07-08T04:15:07;10.75;;;6.10;;
33593;SDS011;19920;52.242;20.940;2023-07-08T04:17:34;10.85;;;6.20;;
33593;SDS011;19920;52.242;20.940;2023-07-08T04:20:13;8.20;;;5.47;;
33593;SDS011;19920;52.242;20.940;2023-07-08T04:22:40;8.18;;;5.88;;
33593;SDS011;19920;52.242;20.940;2023-07-08T04:25:05;10.15;;;5.15;;
33593;SDS011;19920;52.242;20.940;2023-07-08T04:27:31;8.45;;;5.47;;
33593;SDS011;19920;52.242;20.940;2023-07-08T04:29:57;10.90;;;4.97;;
33593;SDS011;19920;52.242;20.940;2023-07-08T04:32:23;8.10;;;5.03;;
33593;SDS011;19920;52.242;20.940;2023-07-08T04:34:50;9.38;;;4.88;;
33593;SDS011;19920;52.242;20.940;2023-07-08T04:37:19;7.13;;;4.87;;
33593;SDS011;19920;52.242;20.940;2023-07-08T04:39:44;8.63;;;4.50;;
33593;SDS011;19920;52.242;20.940;2023-07-08T04:42:11;10.05;;;5.05;;
33593;SDS011;19920;52.242;20.940;2023-07-08T04:44:40;8.90;;;4.68;;
33593;SDS011;19920;52.242;20.940;2023-07-08T04:47:06;7.07;;;4.80;;
33593;SDS011;19920;52.242;20.940;2023-07-08T04:49:34;9.05;;;5.13;;
33593;SDS011;19920;52.242;20.940;2023-07-08T04:52:00;7.05;;;4.50;;
33593;SDS011;19920;52.242;20.940;2023-07-08T04:54:27;10.35;;;5.45;;
33593;SDS011;19920;52.242;20.940;2023-07-08T04:56:53;7.60;;;4.70;;
33593;SDS011;19920;52.242;20.940;2023-07-08T04:59:19;11.63;;;5.18;;
33593;SDS011;19920;52.242;20.940;2023-07-08T05:01:47;7.65;;;4.50;;
33593;SDS011;19920;52.242;20.940;2023-07-08T05:04:14;8.90;;;4.53;;
33593;SDS011;19920;52.242;20.940;2023-07-08T05:06:41;13.27;;;4.95;;
33593;SDS011;19920;52.242;20.940;2023-07-08T05:09:07;7.32;;;4.80;;
33593;SDS011;19920;52.242;20.940;2023-07-08T05:11:33;9.35;;;4.75;;
33593;SDS011;19920;52.242;20.940;2023-07-08T05:14:00;10.82;;;4.50;;
33593;SDS011;19920;52.242;20.940;2023-07-08T05:16:26;9.63;;;4.90;;
33593;SDS011;19920;52.242;20.940;2023-07-08T05:18:52;7.43;;;4.43;;
33593;SDS011;19920;52.242;20.940;2023-07-08T05:21:18;9.15;;;4.40;;
33593;SDS011;19920;52.242;20.940;2023-07-08T05:23:45;10.52;;;4.50;;
33593;SDS011;19920;52.242;20.940;2023-07-08T05:26:14;6.75;;;4.10;;
33593;SDS011;19920;52.242;20.940;2023-07-08T05:28:40;6.57;;;4.32;;
33593;SDS011;19920;52.242;20.940;2023-07-08T05:31:05;6.53;;;4.13;;
33593;SDS011;19920;52.242;20.940;2023-07-08T05:33:31;8.65;;;4.07;;
33593;SDS011;19920;52.242;20.940;2023-07-08T05:35:58;7.00;;;4.13;;
33593;SDS011;19920;52.242;20.940;2023-07-08T05:38:24;10.35;;;4.38;;
33593;SDS011;19920;52.242;20.940;2023-07-08T05:40:50;7.47;;;3.75;;
33593;SDS011;19920;52.242;20.940;2023-07-08T05:43:18;6.63;;;3.63;;
33593;SDS011;19920;52.242;20.940;2023-07-08T05:45:44;10.75;;;4.00;;
33593;SDS011;19920;52.242;20.940;2023-07-08T05:48:10;7.43;;;3.90;;
33593;SDS011;19920;52.242;20.940;2023-07-08T05:50:36;8.00;;;4.00;;
33593;SDS011;19920;52.242;20.940;2023-07-08T05:53:02;9.93;;;3.92;;
33593;SDS011;19920;52.242;20.940;2023-07-08T05:55:27;8.13;;;3.85;;
33593;SDS011;19920;52.242;20.940;2023-07-08T05:57:53;8.20;;;3.33;;
33593;SDS011;19920;52.242;20.940;2023-07-08T06:00:18;6.38;;;3.53;;
33593;SDS011;19920;52.242;20.940;2023-07-08T06:02:44;8.05;;;3.33;;
33593;SDS011;19920;52.242;20.940;2023-07-08T06:05:10;8.52;;;3.38;;
33593;SDS011;19920;52.242;20.940;2023-07-08T06:07:35;7.10;;;3.58;;
33593;SDS011;19920;52.242;20.940;2023-07-08T06:10:01;7.43;;;3.58;;
33593;SDS011;19920;52.242;20.940;2023-07-08T06:12:27;4.57;;;3.03;;
33593;SDS011;19920;52.242;20.940;2023-07-08T06:14:53;6.55;;;3.05;;
33593;SDS011;19920;52.242;20.940;2023-07-08T06:17:18;9.10;;;3.33;;
33593;SDS011;19920;52.242;20.940;2023-07-08T06:19:44;7.22;;;3.03;;
33593;SDS011;19920;52.242;20.940;2023-07-08T06:22:09;7.88;;;3.20;;
33593;SDS011;19920;52.242;20.940;2023-07-08T06:24:35;5.88;;;2.90;;
33593;SDS011;19920;52.242;20.940;2023-07-08T06:27:00;7.47;;;2.75;;
33593;SDS011;19920;52.242;20.940;2023-07-08T06:29:26;5.97;;;2.90;;
33593;SDS011;19920;52.242;20.940;2023-07-08T06:31:52;7.35;;;3.13;;
33593;SDS011;19920;52.242;20.940;2023-07-08T06:34:19;3.40;;;2.55;;
33593;SDS011;19920;52.242;20.940;2023-07-08T06:36:47;7.30;;;3.03;;
33593;SDS011;19920;52.242;20.940;2023-07-08T06:39:13;6.57;;;2.63;;
33593;SDS011;19920;52.242;20.940;2023-07-08T06:41:38;3.90;;;2.22;;
33593;SDS011;19920;52.242;20.940;2023-07-08T06:44:04;6.18;;;2.60;;
33593;SDS011;19920;52.242;20.940;2023-07-08T06:46:30;4.82;;;2.20;;
33593;SDS011;19920;52.242;20.940;2023-07-08T06:48:55;7.35;;;3.05;;
33593;SDS011;19920;52.242;20.940;2023-07-08T06:51:21;4.70;;;2.50;;
33593;SDS011;19920;52.242;20.940;2023-07-08T06:53:46;5.90;;;2.72;;
33593;SDS011;19920;52.242;20.940;2023-07-08T06:56:12;3.70;;;2.83;;
33593;SDS011;19920;52.242;20.940;2023-07-08T06:58:38;4.97;;;2.42;;
33593;SDS011;19920;52.242;20.940;2023-07-08T07:01:03;6.57;;;2.58;;
33593;SDS011;19920;52.242;20.940;2023-07-08T07:03:29;3.60;;;2.60;;
33593;SDS011;19920;52.242;20.940;2023-07-08T07:05:54;4.40;;;2.47;;
33593;SDS011;19920;52.242;20.940;2023-07-08T07:08:20;3.95;;;2.03;;
33593;SDS011;19920;52.242;20.940;2023-07-08T07:10:46;4.55;;;2.28;;
33593;SDS011;19920;52.242;20.940;2023-07-08T07:13:11;3.63;;;2.20;;
33593;SDS011;19920;52.242;20.940;2023-07-08T07:15:37;4.28;;;2.20;;
33593;SDS011;19920;52.242;20.940;2023-07-08T07:18:02;3.78;;;2.08;;
33593;SDS011;19920;52.242;20.940;2023-07-08T07:20:28;5.07;;;2.30;;
33593;SDS011;19920;52.242;20.940;2023-07-08T07:22:54;3.85;;;2.38;;
33593;SDS011;19920;52.242;20.940;2023-07-08T07:25:20;4.10;;;1.80;;
33593;SDS011;19920;52.242;20.940;2023-07-08T07:27:46;3.63;;;2.17;;
33593;SDS011;19920;52.242;20.940;2023-07-08T07:30:12;5.70;;;2.55;;
33593;SDS011;19920;52.242;20.940;2023-07-08T07:32:40;5.57;;;2.40;;
33593;SDS011;19920;52.242;20.940;2023-07-08T07:35:06;4.55;;;1.80;;
33593;SDS011;19920;52.242;20.940;2023-07-08T07:37:33;2.65;;;1.75;;
33593;SDS011;19920;52.242;20.940;2023-07-08T07:39:58;3.38;;;2.20;;
33593;SDS011;19920;52.242;20.940;2023-07-08T07:42:26;7.50;;;2.03;;
33593;SDS011;19920;52.242;20.940;2023-07-08T07:44:52;3.47;;;2.10;;
33593;SDS011;19920;52.242;20.940;2023-07-08T07:47:18;4.47;;;2.47;;
33593;SDS011;19920;52.242;20.940;2023-07-08T07:49:44;2.70;;;1.98;;
33593;SDS011;19920;52.242;20.940;2023-07-08T07:52:09;2.33;;;2.03;;
33593;SDS011;19920;52.242;20.940;2023-07-08T07:54:36;3.40;;;1.95;;
33593;SDS011;19920;52.242;20.940;2023-07-08T07:57:02;2.95;;;1.98;;
33593;SDS011;19920;52.242;20.940;2023-07-08T07:59:28;5.82;;;2.20;;
33593;SDS011;19920;52.242;20.940;2023-07-08T08:01:54;2.60;;;1.80;;
33593;SDS011;19920;52.242;20.940;2023-07-08T08:04:19;5.47;;;1.60;;
33593;SDS011;19920;52.242;20.940;2023-07-08T08:06:45;2.28;;;1.67;;
33593;SDS011;19920;52.242;20.940;2023-07-08T08:09:12;3.67;;;1.65;;
33593;SDS011;19920;52.242;20.940;2023-07-08T08:11:37;5.03;;;1.80;;
33593;SDS011;19920;52.242;20.940;2023-07-08T08:14:03;4.78;;;2.28;;
33593;SDS011;19920;52.242;20.940;2023-07-08T08:16:29;5.10;;;2.25;;
33593;SDS011;19920;52.242;20.940;2023-07-08T08:18:55;6.07;;;2.10;;
33593;SDS011;19920;52.242;20.940;2023-07-08T08:21:20;3.47;;;2.00;;
33593;SDS011;19920;52.242;20.940;2023-07-08T08:23:46;7.32;;;2.03;;
33593;SDS011;19920;52.242;20.940;2023-07-08T08:26:13;3.83;;;1.90;;
33593;SDS011;19920;52.242;20.940;2023-07-08T08:28:39;3.30;;;1.90;;
33593;SDS011;19920;52.242;20.940;2023-07-08T08:31:05;3.38;;;1.73;;
33593;SDS011;19920;52.242;20.940;2023-07-08T08:33:30;3.53;;;1.73;;
33593;SDS011;19920;52.242;20.940;2023-07-08T08:35:56;3.53;;;2.10;;
33593;SDS011;19920;52.242;20.940;2023-07-08T08:38:21;3.15;;;2.03;;
33593;SDS011;19920;52.242;20.940;2023-07-08T08:40:47;6.05;;;1.88;;
33593;SDS011;19920;52.242;20.940;2023-07-08T08:43:17;4.53;;;2.00;;
33593;SDS011;19920;52.242;20.940;2023-07-08T08:45:52;2.25;;;1.80;;
33593;SDS011;19920;52.242;20.940;2023-07-08T08:48:22;2.75;;;1.70;;
33593;SDS011;19920;52.242;20.940;2023-07-08T08:50:51;2.58;;;1.90;;
33593;SDS011;19920;52.242;20.940;2023-07-08T08:53:17;4.72;;;1.92;;
33593;SDS011;19920;52.242;20.940;2023-07-08T08:55:46;2.22;;;1.70;;
33593;SDS011;19920;52.242;20.940;2023-07-08T08:58:37;3.33;;;2.20;;
33593;SDS011;19920;52.242;20.940;2023-07-08T09:01:12;2.15;;;1.90;;
33593;SDS011;19920;52.242;20.940;2023-07-08T09:03:42;3.28;;;1.75;;
33593;SDS011;19920;52.242;20.940;2023-07-08T09:06:20;3.03;;;1.73;;
33593;SDS011;19920;52.242;20.940;2023-07-08T09:08:51;3.30;;;1.85;;
33593;SDS011;19920;52.242;20.940;2023-07-08T09:14:08;3.63;;;1.90;;
33593;SDS011;19920;52.242;20.940;2023-07-08T09:19:18;2.13;;;1.77;;
33593;SDS011;19920;52.242;20.940;2023-07-08T09:27:00;4.95;;;1.90;;
33593;SDS011;19920;52.242;20.940;2023-07-08T09:29:27;2.50;;;2.00;;
33593;SDS011;19920;52.242;20.940;2023-07-08T09:31:53;3.88;;;1.92;;
33593;SDS011;19920;52.242;20.940;2023-07-08T09:34:21;3.67;;;2.22;;
33593;SDS011;19920;52.242;20.940;2023-07-08T09:36:49;4.93;;;1.85;;
33593;SDS011;19920;52.242;20.940;2023-07-08T09:39:17;3.13;;;1.83;;
33593;SDS011;19920;52.242;20.940;2023-07-08T09:41:46;3.03;;;1.92;;
33593;SDS011;19920;52.242;20.940;2023-07-08T09:46:50;3.25;;;2.20;;
33593;SDS011;19920;52.242;20.940;2023-07-08T09:51:46;2.75;;;2.03;;
33593;SDS011;19920;52.242;20.940;2023-07-08T09:54:11;2.45;;;1.90;;
33593;SDS011;19920;52.242;20.940;2023-07-08T09:56:41;3.05;;;2.00;;
33593;SDS011;19920;52.242;20.940;2023-07-08T09:59:11;3.65;;;1.95;;
33593;SDS011;19920;52.242;20.940;2023-07-08T10:01:39;3.53;;;1.70;;
33593;SDS011;19920;52.242;20.940;2023-07-08T10:04:06;3.45;;;2.30;;
33593;SDS011;19920;52.242;20.940;2023-07-08T10:06:32;5.80;;;2.00;;
33593;SDS011;19920;52.242;20.940;2023-07-08T10:09:03;2.13;;;1.65;;
33593;SDS011;19920;52.242;20.940;2023-07-08T10:11:34;2.50;;;1.70;;
33593;SDS011;19920;52.242;20.940;2023-07-08T10:14:06;2.42;;;1.80;;
33593;SDS011;19920;52.242;20.940;2023-07-08T10:16:37;2.78;;;1.83;;
33593;SDS011;19920;52.242;20.940;2023-07-08T10:19:12;2.83;;;1.75;;
33593;SDS011;19920;52.242;20.940;2023-07-08T10:32:38;3.10;;;1.83;;
33593;SDS011;19920;52.242;20.940;2023-07-08T10:43:15;4.90;;;2.10;;
33593;SDS011;19920;52.242;20.940;2023-07-08T10:51:27;2.90;;;2.10;;
33593;SDS011;19920;52.242;20.940;2023-07-08T10:56:34;4.28;;;1.90;;
33593;SDS011;19920;52.242;20.940;2023-07-08T11:01:43;2.63;;;1.63;;
33593;SDS011;19920;52.242;20.940;2023-07-08T11:09:22;2.00;;;1.80;;
33593;SDS011;19920;52.242;20.940;2023-07-08T11:11:54;3.30;;;2.20;;
33593;SDS011;19920;52.242;20.940;2023-07-08T11:17:35;5.20;;;2.20;;
33593;SDS011;19920;52.242;20.940;2023-07-08T11:20:37;3.80;;;2.63;;
33593;SDS011;19920;52.242;20.940;2023-07-08T11:23:10;6.35;;;2.63;;
33593;SDS011;19920;52.242;20.940;2023-07-08T11:25:50;3.95;;;2.42;;
33593;SDS011;19920;52.242;20.940;2023-07-08T11:30:46;5.40;;;2.03;;
33593;SDS011;19920;52.242;20.940;2023-07-08T11:33:15;3.72;;;2.38;;
33593;SDS011;19920;52.242;20.940;2023-07-08T11:35:45;5.13;;;2.30;;
33593;SDS011;19920;52.242;20.940;2023-07-08T11:38:15;5.68;;;2.50;;
33593;SDS011;19920;52.242;20.940;2023-07-08T11:40:53;4.03;;;2.50;;
33593;SDS011;19920;52.242;20.940;2023-07-08T11:43:21;3.83;;;2.35;;
33593;SDS011;19920;52.242;20.940;2023-07-08T11:45:50;3.88;;;2.10;;
33593;SDS011;19920;52.242;20.940;2023-07-08T11:50:50;5.80;;;3.15;;
33593;SDS011;19920;52.242;20.940;2023-07-08T11:56:02;5.07;;;2.83;;
33593;SDS011;19920;52.242;20.940;2023-07-08T12:09:14;3.17;;;2.50;;
33593;SDS011;19920;52.242;20.940;2023-07-08T12:11:52;2.72;;;2.40;;
33593;SDS011;19920;52.242;20.940;2023-07-08T12:14:21;6.40;;;2.20;;
33593;SDS011;19920;52.242;20.940;2023-07-08T12:16:48;3.10;;;2.35;;
33593;SDS011;19920;52.242;20.940;2023-07-08T12:19:18;4.90;;;2.40;;
33593;SDS011;19920;52.242;20.940;2023-07-08T12:21:46;3.60;;;2.33;;
33593;SDS011;19920;52.242;20.940;2023-07-08T12:24:13;5.60;;;2.45;;
33593;SDS011;19920;52.242;20.940;2023-07-08T12:26:39;3.65;;;2.63;;
33593;SDS011;19920;52.242;20.940;2023-07-08T12:29:07;7.05;;;2.55;;
33593;SDS011;19920;52.242;20.940;2023-07-08T12:34:01;3.70;;;2.25;;
33593;SDS011;19920;52.242;20.940;2023-07-08T12:36:28;2.67;;;2.10;;
33593;SDS011;19920;52.242;20.940;2023-07-08T12:38:55;2.55;;;2.35;;
33593;SDS011;19920;52.242;20.940;2023-07-08T12:41:33;4.40;;;2.30;;
33593;SDS011;19920;52.242;20.940;2023-07-08T12:44:00;2.17;;;1.98;;
33593;SDS011;19920;52.242;20.940;2023-07-08T12:46:26;3.67;;;2.42;;
33593;SDS011;19920;52.242;20.940;2023-07-08T12:48:53;3.38;;;2.53;;
33593;SDS011;19920;52.242;20.940;2023-07-08T12:51:25;6.13;;;2.78;;
33593;SDS011;19920;52.242;20.940;2023-07-08T12:53:52;4.35;;;2.58;;
33593;SDS011;19920;52.242;20.940;2023-07-08T12:56:18;3.13;;;2.58;;
33593;SDS011;19920;52.242;20.940;2023-07-08T12:58:56;3.15;;;2.50;;
33593;SDS011;19920;52.242;20.940;2023-07-08T13:01:25;5.43;;;2.90;;
33593;SDS011;19920;52.242;20.940;2023-07-08T13:03:56;4.55;;;2.67;;
33593;SDS011;19920;52.242;20.940;2023-07-08T13:06:27;4.20;;;2.60;;
33593;SDS011;19920;52.242;20.940;2023-07-08T13:08:57;4.60;;;2.40;;
33593;SDS011;19920;52.242;20.940;2023-07-08T13:11:29;2.72;;;2.53;;
33593;SDS011;19920;52.242;20.940;2023-07-08T13:13:56;4.15;;;2.95;;
33593;SDS011;19920;52.242;20.940;2023-07-08T13:16:24;3.70;;;2.10;;
33593;SDS011;19920;52.242;20.940;2023-07-08T13:18:55;2.88;;;2.33;;
33593;SDS011;19920;52.242;20.940;2023-07-08T13:21:21;3.10;;;2.50;;
33593;SDS011;19920;52.242;20.940;2023-07-08T13:23:49;4.22;;;2.90;;
33593;SDS011;19920;52.242;20.940;2023-07-08T13:26:22;3.22;;;2.60;;
33593;SDS011;19920;52.242;20.940;2023-07-08T13:28:50;3.58;;;2.17;;
33593;SDS011;19920;52.242;20.940;2023-07-08T13:31:23;3.80;;;2.42;;
33593;SDS011;19920;52.242;20.940;2023-07-08T13:33:56;3.25;;;2.33;;
33593;SDS011;19920;52.242;20.940;2023-07-08T13:36:23;7.00;;;2.90;;
33593;SDS011;19920;52.242;20.940;2023-07-08T13:38:53;2.67;;;2.30;;
33593;SDS011;19920;52.242;20.940;2023-07-08T13:41:22;2.65;;;2.22;;
33593;SDS011;19920;52.242;20.940;2023-07-08T13:43:49;4.35;;;2.75;;
33593;SDS011;19920;52.242;20.940;2023-07-08T13:46:33;4.00;;;2.53;;
33593;SDS011;19920;52.242;20.940;2023-07-08T13:49:24;4.15;;;2.30;;
33593;SDS011;19920;52.242;20.940;2023-07-08T13:52:04;4.97;;;3.10;;
33593;SDS011;19920;52.242;20.940;2023-07-08T13:55:12;4.80;;;2.78;;
33593;SDS011;19920;52.242;20.940;2023-07-08T13:57:41;3.45;;;2.65;;
33593;SDS011;19920;52.242;20.940;2023-07-08T14:00:07;2.95;;;2.42;;
33593;SDS011;19920;52.242;20.940;2023-07-08T14:02:33;5.40;;;2.67;;
33593;SDS011;19920;52.242;20.940;2023-07-08T14:04:59;3.65;;;3.05;;
33593;SDS011;19920;52.242;20.940;2023-07-08T14:07:29;3.95;;;2.60;;
33593;SDS011;19920;52.242;20.940;2023-07-08T14:09:56;3.22;;;2.50;;
33593;SDS011;19920;52.242;20.940;2023-07-08T14:12:22;3.85;;;3.08;;
33593;SDS011;19920;52.242;20.940;2023-07-08T14:14:48;3.72;;;3.10;;
33593;SDS011;19920;52.242;20.940;2023-07-08T14:17:15;3.50;;;3.03;;
33593;SDS011;19920;52.242;20.940;2023-07-08T14:19:49;3.33;;;2.70;;
33593;SDS011;19920;52.242;20.940;2023-07-08T14:22:28;3.22;;;2.55;;
33593;SDS011;19920;52.242;20.940;2023-07-08T14:24:55;3.35;;;2.80;;
33593;SDS011;19920;52.242;20.940;2023-07-08T14:27:23;3.58;;;2.65;;
33593;SDS011;19920;52.242;20.940;2023-07-08T14:33:11;3.15;;;2.85;;
33593;SDS011;19920;52.242;20.940;2023-07-08T14:35:37;3.25;;;2.80;;
33593;SDS011;19920;52.242;20.940;2023-07-08T14:38:08;4.50;;;2.58;;
33593;SDS011;19920;52.242;20.940;2023-07-08T14:40:38;3.00;;;2.60;;
33593;SDS011;19920;52.242;20.940;2023-07-08T14:45:49;3.30;;;2.70;;
33593;SDS011;19920;52.242;20.940;2023-07-08T14:48:20;3.70;;;2.70;;
33593;SDS011;19920;52.242;20.940;2023-07-08T14:50:46;3.85;;;2.80;;
33593;SDS011;19920;52.242;20.940;2023-07-08T14:53:15;5.40;;;3.08;;
33593;SDS011;19920;52.242;20.940;2023-07-08T14:55:42;4.15;;;2.88;;
33593;SDS011;19920;52.242;20.940;2023-07-08T14:58:10;2.90;;;2.70;;
33593;SDS011;19920;52.242;20.940;2023-07-08T15:00:53;5.30;;;2.70;;
33593;SDS011;19920;52.242;20.940;2023-07-08T15:03:21;4.38;;;2.88;;
33593;SDS011;19920;52.242;20.940;2023-07-08T15:05:48;4.10;;;2.95;;
33593;SDS011;19920;52.242;20.940;2023-07-08T15:08:13;3.80;;;3.40;;
33593;SDS011;19920;52.242;20.940;2023-07-08T15:10:39;3.55;;;3.00;;
33593;SDS011;19920;52.242;20.940;2023-07-08T15:13:14;2.72;;;2.53;;
33593;SDS011;19920;52.242;20.940;2023-07-08T15:15:41;3.55;;;3.08;;
33593;SDS011;19920;52.242;20.940;2023-07-08T15:18:13;3.40;;;2.88;;
33593;SDS011;19920;52.242;20.940;2023-07-08T15:20:40;4.82;;;2.97;;
33593;SDS011;19920;52.242;20.940;2023-07-08T15:23:07;5.63;;;2.85;;
33593;SDS011;19920;52.242;20.940;2023-07-08T15:25:33;3.58;;;2.80;;
33593;SDS011;19920;52.242;20.940;2023-07-08T15:27:59;2.97;;;2.78;;
33593;SDS011;19920;52.242;20.940;2023-07-08T15:30:30;4.18;;;2.70;;
33593;SDS011;19920;52.242;20.940;2023-07-08T15:32:56;3.65;;;2.67;;
33593;SDS011;19920;52.242;20.940;2023-07-08T15:35:27;2.80;;;2.60;;
33593;SDS011;19920;52.242;20.940;2023-07-08T15:37:58;2.92;;;2.67;;
33593;SDS011;19920;52.242;20.940;2023-07-08T15:40:27;3.25;;;2.75;;
33593;SDS011;19920;52.242;20.940;2023-07-08T15:42:56;3.22;;;2.63;;
33593;SDS011;19920;52.242;20.940;2023-07-08T15:45:26;2.70;;;2.50;;
33593;SDS011;19920;52.242;20.940;2023-07-08T15:48:02;4.15;;;3.20;;
33593;SDS011;19920;52.242;20.940;2023-07-08T15:50:28;3.75;;;2.78;;
33593;SDS011;19920;52.242;20.940;2023-07-08T15:52:54;3.20;;;2.90;;
33593;SDS011;19920;52.242;20.940;2023-07-08T15:55:23;5.85;;;3.20;;
33593;SDS011;19920;52.242;20.940;2023-07-08T15:58:03;5.32;;;3.00;;
33593;SDS011;19920;52.242;20.940;2023-07-08T16:00:39;3.42;;;2.90;;
33593;SDS011;19920;52.242;20.940;2023-07-08T16:03:25;6.82;;;2.40;;
33593;SDS011;19920;52.242;20.940;2023-07-08T16:05:56;3.15;;;2.80;;